RYR28QD LDZA-LMML
Flight info
| Callsign | RYR28QD |
|---|---|
| Flight time | 1h 32m |
| Altitude | 36000 |
| Route | NIVES DCT SIRMI DCT KATTI/N0442F370 DCT LIBRO DCT OBAXU DCT NELDA DCT DIRKA N982 GZO DCT |
| Aircraft | A320/M-SDE2FGHIJ1RWY/SB1 |
Departure
| Time | 2026-04-27 11:18 |
|---|---|
| Airport | Zagreb Franjo Tuđman International Airport (LDZA) |
Arrival
| Time | 2026-04-27 12:51 |
|---|---|
| Airport | Malta International Airport (LMML) |
| Time | Latitude | Longitude | Altitude | Speed | Heading |
|---|---|---|---|---|---|
| 2026-04-27 10:52 | 45.74207 | 16.07874 | 364 ft | 0 kts | 136° |
| 2026-04-27 11:05 | 45.74208 | 16.07874 | 359 ft | 0 kts | 136° |
| 2026-04-27 11:08 | 45.74211 | 16.07870 | 359 ft | 3 kts | 137° |
| 2026-04-27 11:08 | 45.74231 | 16.07845 | 361 ft | 4 kts | 142° |
| 2026-04-27 11:08 | 45.74249 | 16.07824 | 359 ft | 2 kts | 136° |
| 2026-04-27 11:09 | 45.74268 | 16.07806 | 364 ft | 4 kts | 181° |
| 2026-04-27 11:09 | 45.74289 | 16.07818 | 362 ft | 3 kts | 226° |
| 2026-04-27 11:09 | 45.74302 | 16.07838 | 363 ft | 0 kts | 226° |
| 2026-04-27 11:13 | 45.74300 | 16.07835 | 363 ft | 2 kts | 226° |
| 2026-04-27 11:13 | 45.74278 | 16.07801 | 362 ft | 8 kts | 226° |
| 2026-04-27 11:13 | 45.74229 | 16.07726 | 365 ft | 12 kts | 227° |
| 2026-04-27 11:13 | 45.74168 | 16.07633 | 359 ft | 14 kts | 227° |
| 2026-04-27 11:14 | 45.74098 | 16.07527 | 365 ft | 16 kts | 227° |
| 2026-04-27 11:14 | 45.74062 | 16.07428 | 361 ft | 11 kts | 281° |
| 2026-04-27 11:14 | 45.74118 | 16.07338 | 359 ft | 13 kts | 316° |
| 2026-04-27 11:14 | 45.74189 | 16.07241 | 364 ft | 14 kts | 316° |
| 2026-04-27 11:15 | 45.74209 | 16.07148 | 359 ft | 11 kts | 240° |
| 2026-04-27 11:15 | 45.74151 | 16.07058 | 359 ft | 13 kts | 226° |
| 2026-04-27 11:15 | 45.74085 | 16.06957 | 359 ft | 15 kts | 227° |
| 2026-04-27 11:15 | 45.74009 | 16.06842 | 362 ft | 17 kts | 227° |
| 2026-04-27 11:16 | 45.73925 | 16.06715 | 363 ft | 19 kts | 226° |
| 2026-04-27 11:16 | 45.73832 | 16.06573 | 359 ft | 20 kts | 226° |
| 2026-04-27 11:16 | 45.73753 | 16.06452 | 359 ft | 12 kts | 227° |
| 2026-04-27 11:16 | 45.73751 | 16.06380 | 360 ft | 9 kts | 316° |
| 2026-04-27 11:17 | 45.73796 | 16.06320 | 360 ft | 9 kts | 317° |
| 2026-04-27 11:17 | 45.73845 | 16.06258 | 361 ft | 10 kts | 324° |
| 2026-04-27 11:17 | 45.73906 | 16.06287 | 366 ft | 11 kts | 46° |
| 2026-04-27 11:17 | 45.74056 | 16.06517 | 362 ft | 67 kts | 47° |
| 2026-04-27 11:18 | 45.74538 | 16.07250 | 361 ft | 132 kts | 46° |
| 2026-04-27 11:18 | 45.75268 | 16.08365 | 588 ft | 161 kts | 48° |
| 2026-04-27 11:18 | 45.75933 | 16.09643 | 1293 ft | 162 kts | 71° |
| 2026-04-27 11:18 | 45.76037 | 16.11239 | 1996 ft | 164 kts | 96° |
| 2026-04-27 11:19 | 45.75872 | 16.12843 | 2506 ft | 166 kts | 97° |
| 2026-04-27 11:19 | 45.75687 | 16.14468 | 3116 ft | 164 kts | 101° |
| 2026-04-27 11:19 | 45.75469 | 16.16104 | 3594 ft | 175 kts | 102° |
| 2026-04-27 11:19 | 45.75193 | 16.17917 | 3823 ft | 199 kts | 110° |
| 2026-04-27 11:20 | 45.74347 | 16.19578 | 4044 ft | 221 kts | 147° |
| 2026-04-27 11:20 | 45.72809 | 16.20143 | 4376 ft | 244 kts | 187° |
| 2026-04-27 11:20 | 45.71116 | 16.19481 | 5048 ft | 257 kts | 201° |
| 2026-04-27 11:20 | 45.69437 | 16.18510 | 5818 ft | 263 kts | 205° |
| 2026-04-27 11:21 | 45.67744 | 16.17441 | 6648 ft | 268 kts | 206° |
| 2026-04-27 11:21 | 45.66026 | 16.16348 | 7430 ft | 272 kts | 206° |
| 2026-04-27 11:21 | 45.64276 | 16.15256 | 8215 ft | 275 kts | 206° |
| 2026-04-27 11:21 | 45.62518 | 16.14184 | 8990 ft | 279 kts | 205° |
| 2026-04-27 11:22 | 45.60703 | 16.13093 | 9774 ft | 283 kts | 205° |
| 2026-04-27 11:22 | 45.58885 | 16.12011 | 10367 ft | 294 kts | 205° |
| 2026-04-27 11:22 | 45.56928 | 16.10853 | 10547 ft | 317 kts | 204° |
| 2026-04-27 11:22 | 45.54835 | 16.09621 | 10927 ft | 330 kts | 204° |
| 2026-04-27 11:23 | 45.52688 | 16.08366 | 11534 ft | 335 kts | 204° |
| 2026-04-27 11:23 | 45.50513 | 16.07101 | 12189 ft | 339 kts | 204° |
| 2026-04-27 11:23 | 45.48330 | 16.05834 | 12825 ft | 343 kts | 204° |
| 2026-04-27 11:23 | 45.46098 | 16.04533 | 13489 ft | 347 kts | 204° |
| 2026-04-27 11:24 | 45.43864 | 16.03228 | 14123 ft | 351 kts | 204° |
| 2026-04-27 11:24 | 45.41578 | 16.01891 | 14694 ft | 355 kts | 204° |
| 2026-04-27 11:24 | 45.39305 | 16.00563 | 15265 ft | 358 kts | 204° |
| 2026-04-27 11:24 | 45.36990 | 15.99214 | 15841 ft | 361 kts | 205° |
| 2026-04-27 11:25 | 45.34647 | 15.97849 | 16405 ft | 364 kts | 205° |
| 2026-04-27 11:25 | 45.32300 | 15.96484 | 16984 ft | 367 kts | 205° |
| 2026-04-27 11:25 | 45.29933 | 15.95113 | 17566 ft | 370 kts | 205° |
| 2026-04-27 11:25 | 45.27562 | 15.93741 | 18138 ft | 373 kts | 205° |
| 2026-04-27 11:26 | 45.25103 | 15.92443 | 18686 ft | 378 kts | 198° |
| 2026-04-27 11:26 | 45.22513 | 15.91781 | 19163 ft | 385 kts | 186° |
| 2026-04-27 11:26 | 45.19801 | 15.91877 | 19659 ft | 392 kts | 174° |
| 2026-04-27 11:26 | 45.17119 | 15.92712 | 20146 ft | 398 kts | 166° |
| 2026-04-27 11:27 | 45.14429 | 15.93732 | 20643 ft | 402 kts | 166° |
| 2026-04-27 11:27 | 45.11713 | 15.94754 | 21137 ft | 405 kts | 166° |
| 2026-04-27 11:27 | 45.09000 | 15.95770 | 21608 ft | 409 kts | 166° |
| 2026-04-27 11:27 | 45.06226 | 15.96808 | 22087 ft | 413 kts | 166° |
| 2026-04-27 11:28 | 45.03436 | 15.97853 | 22532 ft | 417 kts | 166° |
| 2026-04-27 11:28 | 45.00612 | 15.98909 | 22994 ft | 421 kts | 166° |
| 2026-04-27 11:28 | 44.97793 | 15.99961 | 23455 ft | 424 kts | 166° |
| 2026-04-27 11:28 | 44.94903 | 16.01037 | 23882 ft | 428 kts | 166° |
| 2026-04-27 11:29 | 44.92039 | 16.02100 | 24263 ft | 431 kts | 166° |
| 2026-04-27 11:29 | 44.89126 | 16.03178 | 24655 ft | 434 kts | 166° |
| 2026-04-27 11:29 | 44.86184 | 16.04265 | 25042 ft | 436 kts | 166° |
| 2026-04-27 11:29 | 44.83251 | 16.05349 | 25414 ft | 439 kts | 166° |
| 2026-04-27 11:30 | 44.80297 | 16.06442 | 25788 ft | 441 kts | 166° |
| 2026-04-27 11:30 | 44.77307 | 16.07553 | 26144 ft | 443 kts | 166° |
| 2026-04-27 11:30 | 44.74353 | 16.08651 | 26487 ft | 446 kts | 166° |
| 2026-04-27 11:30 | 44.71323 | 16.09774 | 26859 ft | 448 kts | 166° |
| 2026-04-27 11:31 | 44.68320 | 16.10884 | 27212 ft | 450 kts | 166° |
| 2026-04-27 11:31 | 44.65299 | 16.11996 | 27567 ft | 452 kts | 166° |
| 2026-04-27 11:31 | 44.62232 | 16.13121 | 27893 ft | 454 kts | 167° |
| 2026-04-27 11:31 | 44.59197 | 16.14233 | 28256 ft | 456 kts | 167° |
| 2026-04-27 11:32 | 44.56104 | 16.15367 | 28591 ft | 458 kts | 166° |
| 2026-04-27 11:32 | 44.53016 | 16.16500 | 28910 ft | 460 kts | 166° |
| 2026-04-27 11:32 | 44.49927 | 16.17634 | 29237 ft | 462 kts | 166° |
| 2026-04-27 11:32 | 44.46788 | 16.18788 | 29555 ft | 465 kts | 166° |
| 2026-04-27 11:33 | 44.43687 | 16.19924 | 29881 ft | 466 kts | 166° |
| 2026-04-27 11:33 | 44.40529 | 16.21077 | 30271 ft | 466 kts | 167° |
| 2026-04-27 11:33 | 44.37386 | 16.22224 | 30672 ft | 465 kts | 167° |
| 2026-04-27 11:33 | 44.34275 | 16.23359 | 31071 ft | 464 kts | 167° |
| 2026-04-27 11:34 | 44.31172 | 16.24492 | 31473 ft | 463 kts | 167° |
| 2026-04-27 11:34 | 44.28046 | 16.25631 | 31896 ft | 461 kts | 167° |
| 2026-04-27 11:34 | 44.24946 | 16.26756 | 32332 ft | 460 kts | 167° |
| 2026-04-27 11:34 | 44.21862 | 16.27874 | 32763 ft | 458 kts | 167° |
| 2026-04-27 11:35 | 44.18793 | 16.28985 | 33168 ft | 457 kts | 168° |
| 2026-04-27 11:35 | 44.16717 | 16.29586 | 33439 ft | 455 kts | 174° |
| 2026-04-27 11:35 | 44.12532 | 16.29907 | 34004 ft | 450 kts | 186° |
| 2026-04-27 11:35 | 44.10465 | 16.29653 | 34231 ft | 447 kts | 189° |
| 2026-04-27 11:36 | 44.07370 | 16.29152 | 34542 ft | 447 kts | 189° |
| 2026-04-27 11:36 | 44.04280 | 16.28652 | 34841 ft | 447 kts | 189° |
| 2026-04-27 11:36 | 44.01191 | 16.28157 | 35125 ft | 447 kts | 189° |
| 2026-04-27 11:36 | 43.98101 | 16.27669 | 35392 ft | 446 kts | 189° |
| 2026-04-27 11:37 | 43.95017 | 16.27183 | 35635 ft | 446 kts | 189° |
| 2026-04-27 11:37 | 43.91939 | 16.26695 | 35887 ft | 445 kts | 189° |
| 2026-04-27 11:37 | 43.88862 | 16.26208 | 36080 ft | 446 kts | 189° |
| 2026-04-27 11:37 | 43.85764 | 16.25719 | 36130 ft | 450 kts | 189° |
| 2026-04-27 11:38 | 43.79513 | 16.24734 | 36125 ft | 452 kts | 189° |
| 2026-04-27 11:38 | 43.73280 | 16.23761 | 36125 ft | 453 kts | 189° |
| 2026-04-27 11:39 | 43.67018 | 16.22784 | 36128 ft | 453 kts | 189° |
| 2026-04-27 11:39 | 43.60779 | 16.21796 | 36127 ft | 452 kts | 189° |
| 2026-04-27 11:40 | 43.54498 | 16.20802 | 36161 ft | 453 kts | 189° |
| 2026-04-27 11:40 | 43.51354 | 16.20313 | 36395 ft | 453 kts | 189° |
| 2026-04-27 11:40 | 43.48244 | 16.19830 | 36654 ft | 453 kts | 189° |
| 2026-04-27 11:41 | 43.45100 | 16.19343 | 36907 ft | 452 kts | 189° |
| 2026-04-27 11:41 | 43.41995 | 16.18865 | 37098 ft | 453 kts | 189° |
| 2026-04-27 11:41 | 43.35726 | 16.17900 | 37132 ft | 453 kts | 189° |
| 2026-04-27 11:42 | 43.29484 | 16.16929 | 37130 ft | 453 kts | 189° |
| 2026-04-27 11:42 | 43.23226 | 16.15958 | 37129 ft | 452 kts | 189° |
| 2026-04-27 11:43 | 43.16987 | 16.14995 | 37133 ft | 451 kts | 189° |
| 2026-04-27 11:43 | 43.10739 | 16.14032 | 37137 ft | 452 kts | 189° |
| 2026-04-27 11:44 | 43.04482 | 16.13070 | 37134 ft | 452 kts | 190° |
| 2026-04-27 11:44 | 42.98235 | 16.12111 | 37150 ft | 452 kts | 189° |
| 2026-04-27 11:45 | 42.92005 | 16.11149 | 37156 ft | 452 kts | 189° |
| 2026-04-27 11:45 | 42.85745 | 16.10195 | 37150 ft | 451 kts | 190° |
| 2026-04-27 11:46 | 42.79539 | 16.09250 | 37153 ft | 450 kts | 190° |
| 2026-04-27 11:46 | 42.73307 | 16.08307 | 37157 ft | 450 kts | 190° |
| 2026-04-27 11:47 | 42.67081 | 16.07370 | 37147 ft | 450 kts | 190° |
| 2026-04-27 11:47 | 42.60864 | 16.06420 | 37155 ft | 450 kts | 190° |
| 2026-04-27 11:48 | 42.54648 | 16.05467 | 37162 ft | 449 kts | 190° |
| 2026-04-27 11:48 | 42.48504 | 16.04108 | 37143 ft | 445 kts | 198° |
| 2026-04-27 11:49 | 42.42515 | 16.02014 | 37151 ft | 445 kts | 198° |
| 2026-04-27 11:49 | 42.36528 | 15.99918 | 37155 ft | 444 kts | 198° |
| 2026-04-27 11:50 | 42.30571 | 15.97844 | 37153 ft | 445 kts | 198° |
| 2026-04-27 11:50 | 42.24577 | 15.95766 | 37144 ft | 444 kts | 198° |
| 2026-04-27 11:51 | 42.18574 | 15.93693 | 37156 ft | 444 kts | 198° |
| 2026-04-27 11:52 | 42.09574 | 15.90592 | 37158 ft | 444 kts | 198° |
| 2026-04-27 11:52 | 42.03626 | 15.88543 | 37170 ft | 444 kts | 198° |
| 2026-04-27 11:53 | 41.97636 | 15.86475 | 37176 ft | 444 kts | 198° |
| 2026-04-27 11:53 | 41.91675 | 15.84421 | 37179 ft | 444 kts | 198° |
| 2026-04-27 11:54 | 41.85673 | 15.82361 | 37173 ft | 444 kts | 198° |
| 2026-04-27 11:54 | 41.79687 | 15.80322 | 37176 ft | 445 kts | 198° |
| 2026-04-27 11:55 | 41.73695 | 15.78282 | 37177 ft | 445 kts | 198° |
| 2026-04-27 11:55 | 41.67689 | 15.76232 | 37161 ft | 445 kts | 198° |
| 2026-04-27 11:56 | 41.61680 | 15.74184 | 37159 ft | 445 kts | 198° |
| 2026-04-27 11:56 | 41.55667 | 15.72148 | 37156 ft | 445 kts | 198° |
| 2026-04-27 11:57 | 41.49696 | 15.70133 | 37143 ft | 444 kts | 198° |
| 2026-04-27 11:57 | 41.43674 | 15.68101 | 37150 ft | 445 kts | 198° |
| 2026-04-27 11:58 | 41.37687 | 15.66084 | 37154 ft | 445 kts | 198° |
| 2026-04-27 11:58 | 41.31694 | 15.64063 | 37152 ft | 445 kts | 198° |
| 2026-04-27 11:59 | 41.25698 | 15.62049 | 37161 ft | 445 kts | 198° |
| 2026-04-27 11:59 | 41.19692 | 15.60039 | 37171 ft | 445 kts | 198° |
| 2026-04-27 12:00 | 41.13727 | 15.58040 | 37177 ft | 444 kts | 198° |
| 2026-04-27 12:00 | 41.07725 | 15.56031 | 37181 ft | 444 kts | 197° |
| 2026-04-27 12:01 | 41.01722 | 15.54029 | 37186 ft | 444 kts | 197° |
| 2026-04-27 12:01 | 40.95752 | 15.52052 | 37188 ft | 444 kts | 197° |
| 2026-04-27 12:02 | 40.89768 | 15.50057 | 37188 ft | 444 kts | 197° |
| 2026-04-27 12:02 | 40.83770 | 15.48061 | 37190 ft | 444 kts | 197° |
| 2026-04-27 12:03 | 40.77763 | 15.46070 | 37182 ft | 444 kts | 197° |
| 2026-04-27 12:03 | 40.71765 | 15.44086 | 37174 ft | 445 kts | 197° |
| 2026-04-27 12:04 | 40.65776 | 15.42116 | 37187 ft | 445 kts | 197° |
| 2026-04-27 12:04 | 40.59770 | 15.40141 | 37183 ft | 445 kts | 197° |
| 2026-04-27 12:05 | 40.53770 | 15.38164 | 37179 ft | 444 kts | 197° |
| 2026-04-27 12:05 | 40.47766 | 15.36189 | 37168 ft | 444 kts | 197° |
| 2026-04-27 12:06 | 40.41769 | 15.34233 | 37178 ft | 444 kts | 197° |
| 2026-04-27 12:06 | 40.35761 | 15.32266 | 37175 ft | 444 kts | 197° |
| 2026-04-27 12:07 | 40.29751 | 15.30308 | 37162 ft | 444 kts | 196° |
| 2026-04-27 12:07 | 40.23779 | 15.28368 | 37169 ft | 444 kts | 196° |
| 2026-04-27 12:08 | 40.17772 | 15.26410 | 37167 ft | 444 kts | 196° |
| 2026-04-27 12:08 | 40.11769 | 15.24468 | 37160 ft | 444 kts | 196° |
| 2026-04-27 12:09 | 40.05788 | 15.22542 | 37163 ft | 444 kts | 196° |
| 2026-04-27 12:09 | 39.99780 | 15.20607 | 37166 ft | 445 kts | 196° |
| 2026-04-27 12:10 | 39.93776 | 15.18671 | 37167 ft | 445 kts | 196° |
| 2026-04-27 12:10 | 39.87765 | 15.16738 | 37158 ft | 445 kts | 196° |
| 2026-04-27 12:11 | 39.81762 | 15.14798 | 37167 ft | 445 kts | 196° |
| 2026-04-27 12:11 | 39.75756 | 15.12861 | 37167 ft | 444 kts | 196° |
| 2026-04-27 12:12 | 39.69749 | 15.10944 | 37166 ft | 444 kts | 196° |
| 2026-04-27 12:12 | 39.63777 | 15.09043 | 37165 ft | 444 kts | 196° |
| 2026-04-27 12:13 | 39.57744 | 15.07122 | 37170 ft | 444 kts | 196° |
| 2026-04-27 12:13 | 39.51759 | 15.05205 | 37172 ft | 444 kts | 196° |
| 2026-04-27 12:14 | 39.45752 | 15.03289 | 37168 ft | 444 kts | 196° |
| 2026-04-27 12:14 | 39.39744 | 15.01379 | 37171 ft | 444 kts | 196° |
| 2026-04-27 12:15 | 39.33773 | 14.99485 | 37172 ft | 445 kts | 196° |
| 2026-04-27 12:15 | 39.27765 | 14.97584 | 37160 ft | 445 kts | 197° |
| 2026-04-27 12:16 | 39.21747 | 14.95686 | 37165 ft | 445 kts | 196° |
| 2026-04-27 12:16 | 39.15737 | 14.93798 | 37169 ft | 445 kts | 196° |
| 2026-04-27 12:17 | 39.09738 | 14.91910 | 37174 ft | 445 kts | 196° |
| 2026-04-27 12:17 | 39.03734 | 14.90025 | 37158 ft | 445 kts | 197° |
| 2026-04-27 12:18 | 38.97720 | 14.88143 | 37168 ft | 445 kts | 197° |
| 2026-04-27 12:18 | 38.91708 | 14.86263 | 37170 ft | 444 kts | 197° |
| 2026-04-27 12:19 | 38.85708 | 14.84386 | 37171 ft | 444 kts | 197° |
| 2026-04-27 12:19 | 38.79716 | 14.82510 | 37167 ft | 444 kts | 197° |
| 2026-04-27 12:20 | 38.73709 | 14.80637 | 37165 ft | 444 kts | 197° |
| 2026-04-27 12:20 | 38.67715 | 14.78773 | 37168 ft | 444 kts | 197° |
| 2026-04-27 12:21 | 38.61715 | 14.76910 | 37147 ft | 443 kts | 197° |
| 2026-04-27 12:21 | 38.55729 | 14.75054 | 37159 ft | 443 kts | 197° |
| 2026-04-27 12:22 | 38.49748 | 14.73203 | 37166 ft | 443 kts | 197° |
| 2026-04-27 12:22 | 38.43745 | 14.71359 | 37155 ft | 444 kts | 197° |
| 2026-04-27 12:23 | 38.37727 | 14.69513 | 37153 ft | 443 kts | 197° |
| 2026-04-27 12:23 | 38.31724 | 14.67662 | 37166 ft | 443 kts | 197° |
| 2026-04-27 12:24 | 38.25772 | 14.65832 | 37161 ft | 443 kts | 197° |
| 2026-04-27 12:24 | 38.19768 | 14.63996 | 37136 ft | 443 kts | 198° |
| 2026-04-27 12:25 | 38.13792 | 14.62168 | 37146 ft | 443 kts | 198° |
| 2026-04-27 12:25 | 38.07824 | 14.60332 | 37156 ft | 443 kts | 198° |
| 2026-04-27 12:26 | 38.01813 | 14.58492 | 37152 ft | 443 kts | 198° |
| 2026-04-27 12:26 | 37.95857 | 14.56673 | 37150 ft | 442 kts | 198° |
| 2026-04-27 12:27 | 37.90870 | 14.55157 | 37140 ft | 442 kts | 198° |
| 2026-04-27 12:27 | 37.84865 | 14.53342 | 37147 ft | 443 kts | 198° |
| 2026-04-27 12:28 | 37.78883 | 14.51538 | 37146 ft | 443 kts | 198° |
| 2026-04-27 12:28 | 37.72872 | 14.49719 | 36942 ft | 440 kts | 198° |
| 2026-04-27 12:28 | 37.69927 | 14.48826 | 36370 ft | 439 kts | 198° |
| 2026-04-27 12:29 | 37.66943 | 14.47922 | 35783 ft | 439 kts | 198° |
| 2026-04-27 12:29 | 37.63981 | 14.47029 | 35199 ft | 438 kts | 198° |
| 2026-04-27 12:29 | 37.60955 | 14.46359 | 34608 ft | 442 kts | 189° |
| 2026-04-27 12:29 | 37.57902 | 14.46065 | 34020 ft | 442 kts | 188° |
| 2026-04-27 12:30 | 37.54848 | 14.45778 | 33302 ft | 443 kts | 188° |
| 2026-04-27 12:30 | 37.51750 | 14.45485 | 32524 ft | 444 kts | 188° |
| 2026-04-27 12:30 | 37.48672 | 14.45189 | 31819 ft | 445 kts | 188° |
| 2026-04-27 12:30 | 37.45593 | 14.44892 | 31271 ft | 442 kts | 188° |
| 2026-04-27 12:31 | 37.42570 | 14.44602 | 30735 ft | 439 kts | 188° |
| 2026-04-27 12:31 | 37.39533 | 14.44313 | 30204 ft | 436 kts | 188° |
| 2026-04-27 12:31 | 37.36497 | 14.44023 | 29598 ft | 433 kts | 188° |
| 2026-04-27 12:31 | 37.33532 | 14.43738 | 29021 ft | 430 kts | 188° |
| 2026-04-27 12:32 | 37.30549 | 14.43451 | 28451 ft | 426 kts | 188° |
| 2026-04-27 12:32 | 37.27622 | 14.43172 | 27891 ft | 424 kts | 188° |
| 2026-04-27 12:32 | 37.24679 | 14.42896 | 27352 ft | 421 kts | 188° |
| 2026-04-27 12:32 | 37.21789 | 14.42626 | 26821 ft | 418 kts | 188° |
| 2026-04-27 12:33 | 37.18883 | 14.42353 | 26305 ft | 415 kts | 188° |
| 2026-04-27 12:33 | 37.16010 | 14.42083 | 25831 ft | 412 kts | 188° |
| 2026-04-27 12:33 | 37.13145 | 14.41811 | 25362 ft | 410 kts | 188° |
| 2026-04-27 12:33 | 37.10321 | 14.41541 | 24918 ft | 407 kts | 188° |
| 2026-04-27 12:34 | 37.07531 | 14.41275 | 24491 ft | 405 kts | 188° |
| 2026-04-27 12:34 | 37.04717 | 14.41011 | 24086 ft | 402 kts | 189° |
| 2026-04-27 12:34 | 37.01942 | 14.40752 | 23715 ft | 399 kts | 189° |
| 2026-04-27 12:34 | 36.99171 | 14.40492 | 23272 ft | 396 kts | 189° |
| 2026-04-27 12:35 | 36.96442 | 14.40233 | 22830 ft | 394 kts | 189° |
| 2026-04-27 12:35 | 36.93738 | 14.39978 | 22393 ft | 391 kts | 189° |
| 2026-04-27 12:35 | 36.91030 | 14.39722 | 21945 ft | 389 kts | 188° |
| 2026-04-27 12:35 | 36.88346 | 14.39469 | 21491 ft | 386 kts | 188° |
| 2026-04-27 12:36 | 36.85664 | 14.39137 | 21032 ft | 381 kts | 194° |
| 2026-04-27 12:36 | 36.83089 | 14.38545 | 20569 ft | 379 kts | 195° |
| 2026-04-27 12:36 | 36.80487 | 14.37946 | 20116 ft | 376 kts | 195° |
| 2026-04-27 12:36 | 36.77930 | 14.37359 | 19662 ft | 374 kts | 195° |
| 2026-04-27 12:37 | 36.75397 | 14.36780 | 19206 ft | 371 kts | 194° |
| 2026-04-27 12:37 | 36.72853 | 14.36200 | 18750 ft | 369 kts | 194° |
| 2026-04-27 12:37 | 36.70349 | 14.35629 | 18281 ft | 367 kts | 194° |
| 2026-04-27 12:37 | 36.67831 | 14.35056 | 17777 ft | 365 kts | 194° |
| 2026-04-27 12:38 | 36.65329 | 14.34486 | 17283 ft | 363 kts | 194° |
| 2026-04-27 12:38 | 36.62872 | 14.33927 | 16802 ft | 360 kts | 194° |
| 2026-04-27 12:38 | 36.60397 | 14.33364 | 16314 ft | 358 kts | 194° |
| 2026-04-27 12:38 | 36.57975 | 14.32813 | 15858 ft | 356 kts | 194° |
| 2026-04-27 12:39 | 36.55534 | 14.32258 | 15400 ft | 354 kts | 194° |
| 2026-04-27 12:39 | 36.53113 | 14.31707 | 14949 ft | 352 kts | 194° |
| 2026-04-27 12:39 | 36.50738 | 14.31167 | 14512 ft | 350 kts | 194° |
| 2026-04-27 12:39 | 36.48347 | 14.30625 | 14076 ft | 348 kts | 194° |
| 2026-04-27 12:40 | 36.45963 | 14.30083 | 13602 ft | 346 kts | 194° |
| 2026-04-27 12:40 | 36.43602 | 14.29542 | 13137 ft | 343 kts | 194° |
| 2026-04-27 12:40 | 36.41256 | 14.29009 | 12663 ft | 341 kts | 194° |
| 2026-04-27 12:40 | 36.38954 | 14.28488 | 12217 ft | 339 kts | 194° |
| 2026-04-27 12:41 | 36.36640 | 14.27964 | 11770 ft | 337 kts | 194° |
| 2026-04-27 12:41 | 36.34331 | 14.27442 | 11329 ft | 335 kts | 194° |
| 2026-04-27 12:41 | 36.32028 | 14.26918 | 10906 ft | 333 kts | 194° |
| 2026-04-27 12:41 | 36.29800 | 14.26413 | 10769 ft | 322 kts | 195° |
| 2026-04-27 12:42 | 36.27626 | 14.25922 | 10643 ft | 311 kts | 195° |
| 2026-04-27 12:42 | 36.25527 | 14.25450 | 10452 ft | 300 kts | 195° |
| 2026-04-27 12:42 | 36.23492 | 14.24995 | 9925 ft | 295 kts | 195° |
| 2026-04-27 12:42 | 36.21481 | 14.24542 | 9319 ft | 292 kts | 194° |
| 2026-04-27 12:43 | 36.19510 | 14.24096 | 8739 ft | 289 kts | 194° |
| 2026-04-27 12:43 | 36.17543 | 14.23646 | 8168 ft | 285 kts | 193° |
| 2026-04-27 12:43 | 36.15601 | 14.23203 | 7610 ft | 282 kts | 193° |
| 2026-04-27 12:43 | 36.13680 | 14.22767 | 7050 ft | 279 kts | 193° |
| 2026-04-27 12:44 | 36.11784 | 14.22335 | 6510 ft | 275 kts | 193° |
| 2026-04-27 12:44 | 36.09920 | 14.21910 | 6143 ft | 264 kts | 193° |
| 2026-04-27 12:44 | 36.08162 | 14.21689 | 6044 ft | 246 kts | 177° |
| 2026-04-27 12:44 | 36.06559 | 14.22224 | 5883 ft | 235 kts | 154° |
| 2026-04-27 12:45 | 36.05283 | 14.23417 | 5621 ft | 227 kts | 136° |
| 2026-04-27 12:45 | 36.04196 | 14.24779 | 5378 ft | 218 kts | 136° |
| 2026-04-27 12:45 | 36.03135 | 14.26110 | 5067 ft | 216 kts | 136° |
| 2026-04-27 12:45 | 36.02085 | 14.27421 | 4781 ft | 214 kts | 136° |
| 2026-04-27 12:46 | 36.01034 | 14.28730 | 4457 ft | 214 kts | 136° |
| 2026-04-27 12:46 | 35.99994 | 14.30027 | 4150 ft | 211 kts | 136° |
| 2026-04-27 12:46 | 35.98975 | 14.31304 | 3912 ft | 206 kts | 137° |
| 2026-04-27 12:46 | 35.97980 | 14.32537 | 3696 ft | 199 kts | 137° |
| 2026-04-27 12:47 | 35.97024 | 14.33735 | 3528 ft | 198 kts | 136° |
| 2026-04-27 12:47 | 35.96055 | 14.34957 | 3320 ft | 196 kts | 137° |
| 2026-04-27 12:47 | 35.95101 | 14.36132 | 3058 ft | 197 kts | 137° |
| 2026-04-27 12:47 | 35.94121 | 14.37322 | 2721 ft | 199 kts | 138° |
| 2026-04-27 12:48 | 35.93135 | 14.38515 | 2430 ft | 198 kts | 136° |
| 2026-04-27 12:48 | 35.92191 | 14.39720 | 2212 ft | 191 kts | 135° |
| 2026-04-27 12:48 | 35.91303 | 14.40881 | 1899 ft | 181 kts | 135° |
| 2026-04-27 12:48 | 35.90455 | 14.41940 | 1693 ft | 163 kts | 137° |
| 2026-04-27 12:49 | 35.89708 | 14.42859 | 1446 ft | 144 kts | 137° |
| 2026-04-27 12:49 | 35.89008 | 14.43725 | 1228 ft | 138 kts | 136° |
| 2026-04-27 12:49 | 35.88335 | 14.44551 | 1040 ft | 138 kts | 137° |
| 2026-04-27 12:49 | 35.87650 | 14.45387 | 842 ft | 139 kts | 138° |
| 2026-04-27 12:50 | 35.86968 | 14.46231 | 692 ft | 142 kts | 137° |
| 2026-04-27 12:50 | 35.86269 | 14.47102 | 490 ft | 144 kts | 136° |
| 2026-04-27 12:50 | 35.85567 | 14.47973 | 298 ft | 142 kts | 136° |
| 2026-04-27 12:50 | 35.84958 | 14.48727 | 261 ft | 93 kts | 135° |
| 2026-04-27 12:51 | 35.84618 | 14.49144 | 259 ft | 60 kts | 135° |
| 2026-04-27 12:51 | 35.84472 | 14.49383 | 259 ft | 28 kts | 109° |
| 2026-04-27 12:51 | 35.84450 | 14.49551 | 259 ft | 13 kts | 66° |
| 2026-04-27 12:51 | 35.84529 | 14.49560 | 259 ft | 14 kts | 316° |
| 2026-04-27 12:52 | 35.84597 | 14.49543 | 259 ft | 11 kts | 46° |
| 2026-04-27 12:52 | 35.84653 | 14.49582 | 259 ft | 9 kts | 347° |
| 2026-04-27 12:52 | 35.84707 | 14.49547 | 259 ft | 8 kts | 319° |
| 2026-04-27 12:52 | 35.84748 | 14.49514 | 259 ft | 6 kts | 352° |
| 2026-04-27 12:53 | 35.84813 | 14.49514 | 259 ft | 0 kts | 359° |